createdAt,value
2022-11-04T00:05:00.982Z,1010.17
2022-11-04T00:10:08.114Z,1010.21
2022-11-04T00:15:15.319Z,1010.22
2022-11-04T00:20:22.543Z,1010.01
2022-11-04T00:25:29.906Z,1009.98
2022-11-04T00:30:36.932Z,1009.94
2022-11-04T00:35:44.118Z,1010.05
2022-11-04T00:40:51.362Z,1009.71
2022-11-04T00:45:58.571Z,1009.79
2022-11-04T00:51:05.892Z,1009.69
2022-11-04T00:56:12.993Z,1009.57
2022-11-04T01:01:20.385Z,1009.47
2022-11-04T01:06:27.407Z,1009.68
2022-11-04T01:11:34.624Z,1009.68
2022-11-04T01:16:41.897Z,1009.46
2022-11-04T01:21:49.075Z,1009.53
2022-11-04T01:26:56.532Z,1009.49
2022-11-04T01:32:03.707Z,1009.49
2022-11-04T01:37:10.929Z,1009.34
2022-11-04T01:42:18.147Z,1009.34
2022-11-04T01:47:25.350Z,1009.42
2022-11-04T01:52:32.555Z,1009.21
2022-11-04T01:57:39.826Z,1009.24
2022-11-04T02:02:47.031Z,1009.16
2022-11-04T02:07:54.271Z,1009.17
2022-11-04T02:13:01.457Z,1009.01
2022-11-04T02:18:08.632Z,1009.02
2022-11-04T02:23:15.903Z,1009.02
2022-11-04T02:28:23.095Z,1008.91
2022-11-04T02:33:30.358Z,1008.94
2022-11-04T02:38:37.589Z,1009.08
2022-11-04T02:43:44.729Z,1009.15
2022-11-04T02:48:51.998Z,1009.15
2022-11-04T02:53:59.182Z,1008.87
2022-11-04T02:59:06.429Z,1009.01
2022-11-04T03:04:13.589Z,1009.08
2022-11-04T03:09:20.863Z,1009.08
2022-11-04T03:14:28.113Z,1008.94
2022-11-04T03:19:35.298Z,1008.86
2022-11-04T03:24:42.532Z,1009.20
2022-11-04T03:29:49.688Z,1009.16
2022-11-04T03:34:56.927Z,1009.30
2022-11-04T03:40:04.123Z,1009.40
2022-11-04T03:45:11.300Z,1009.32
2022-11-04T03:50:18.527Z,1009.12
2022-11-04T03:55:27.069Z,1008.81
2022-11-04T04:00:34.293Z,1008.86
2022-11-04T04:05:41.483Z,1008.96
2022-11-04T04:10:48.700Z,1008.97
2022-11-04T04:15:55.889Z,1008.96
2022-11-04T04:21:03.103Z,1009.10
2022-11-04T04:26:10.570Z,1009.10
2022-11-04T04:31:17.827Z,1009.04
2022-11-04T04:36:25.056Z,1009.11
2022-11-04T04:41:32.284Z,1009.27
2022-11-04T04:46:39.449Z,1009.11
2022-11-04T04:51:46.717Z,1009.17
2022-11-04T04:56:53.975Z,1009.12
2022-11-04T05:02:01.260Z,1009.08
2022-11-04T05:07:08.348Z,1009.18
2022-11-04T05:12:15.593Z,1009.13
2022-11-04T05:17:22.761Z,1008.96
2022-11-04T05:22:29.952Z,1008.94
2022-11-04T05:27:37.172Z,1008.92
2022-11-04T05:32:44.367Z,1008.96
2022-11-04T05:37:51.535Z,1008.85
2022-11-04T05:43:00.710Z,1009.10
2022-11-04T05:48:07.896Z,1009.22
2022-11-04T05:53:15.212Z,1009.12
2022-11-04T05:58:22.418Z,1008.93
2022-11-04T06:03:29.578Z,1008.84
2022-11-04T06:08:41.044Z,1008.78
2022-11-04T06:13:44.094Z,1008.77
2022-11-04T06:18:51.352Z,1008.90
2022-11-04T06:23:58.546Z,1008.96
2022-11-04T06:29:05.763Z,1009.10
2022-11-04T06:34:12.932Z,1009.11
2022-11-04T06:39:20.175Z,1009.08
2022-11-04T06:44:27.432Z,1008.88
2022-11-04T06:49:34.635Z,1008.77
2022-11-04T06:54:41.873Z,1008.62
2022-11-04T06:59:49.150Z,1008.56
2022-11-04T07:10:03.512Z,1008.61
2022-11-04T07:15:10.729Z,1008.54
2022-11-04T07:20:17.942Z,1008.65
2022-11-04T07:25:25.211Z,1008.73
2022-11-04T07:30:32.511Z,1008.75
2022-11-04T07:35:39.735Z,1008.74
2022-11-04T07:40:46.946Z,1008.61
2022-11-04T07:45:54.139Z,1008.65
2022-11-04T07:51:01.339Z,1008.62
2022-11-04T07:56:08.554Z,1008.53
2022-11-04T08:01:15.834Z,1008.56
2022-11-04T08:06:24.043Z,1008.58
2022-11-04T08:11:31.211Z,1008.67
2022-11-04T08:16:38.445Z,1009.04
2022-11-04T08:21:45.579Z,1009.12
2022-11-04T08:26:52.802Z,1008.99
2022-11-04T08:32:00.031Z,1008.80
2022-11-04T08:37:07.233Z,1008.63
2022-11-04T08:42:14.475Z,1008.66
2022-11-04T08:47:22.004Z,1008.58
2022-11-04T08:52:29.228Z,1008.49
2022-11-04T08:57:36.449Z,1008.39
2022-11-04T09:02:43.616Z,1008.38
2022-11-04T09:07:50.791Z,1008.24
2022-11-04T09:12:57.982Z,1008.24
2022-11-04T09:18:05.385Z,1008.23
2022-11-04T09:23:12.616Z,1008.24
2022-11-04T09:28:19.567Z,1008.24
2022-11-04T09:33:26.906Z,1008.19
2022-11-04T09:38:33.991Z,1008.18
2022-11-04T09:43:41.180Z,1008.14
2022-11-04T09:48:48.497Z,1008.15
2022-11-04T09:53:55.545Z,1008.17
2022-11-04T09:59:02.714Z,1008.14
2022-11-04T10:04:10.134Z,1008.07
2022-11-04T10:09:18.548Z,1008.03
2022-11-04T10:14:25.740Z,1007.96
2022-11-04T10:19:33.110Z,1007.93
2022-11-04T10:24:40.049Z,1007.91
2022-11-04T10:29:47.252Z,1007.86
2022-11-04T10:34:54.622Z,1007.95
2022-11-04T10:40:01.760Z,1007.93
2022-11-04T10:45:08.980Z,1007.84
2022-11-04T10:50:32.048Z,1007.86
2022-11-04T10:55:23.591Z,1007.94
2022-11-04T11:00:32.471Z,1007.83
2022-11-04T11:05:39.663Z,1007.74
2022-11-04T11:10:46.842Z,1007.70
2022-11-04T11:15:53.998Z,1007.55
2022-11-04T11:21:01.237Z,1007.49
2022-11-04T11:26:10.445Z,1007.51
2022-11-04T11:31:17.837Z,1007.48
2022-11-04T11:36:26.199Z,1007.46
2022-11-04T11:41:33.469Z,1007.45
2022-11-04T11:46:40.651Z,1007.36
2022-11-04T11:51:47.898Z,1007.35
2022-11-04T12:02:02.506Z,1007.20
2022-11-04T12:12:16.905Z,1007.18
2022-11-04T12:17:24.106Z,1007.19
2022-11-04T12:22:31.325Z,1007.23
2022-11-04T12:27:38.526Z,1007.17
2022-11-04T12:32:45.722Z,1007.08
2022-11-04T12:37:52.961Z,1007.12
2022-11-04T12:43:00.108Z,1007.12
2022-11-04T12:48:07.312Z,1007.15
2022-11-04T12:53:14.551Z,1007.20
2022-11-04T12:58:21.789Z,1007.14
2022-11-04T13:03:28.968Z,1007.19
2022-11-04T13:08:36.194Z,1007.22
2022-11-04T13:13:46.291Z,1007.25
2022-11-04T13:18:53.434Z,1007.27
2022-11-04T13:24:00.660Z,1007.18
2022-11-04T13:29:09.200Z,1007.13
2022-11-04T13:34:22.095Z,1007.13
2022-11-04T13:39:24.543Z,1007.10
2022-11-04T13:44:31.817Z,1007.14
2022-11-04T13:49:38.963Z,1007.24
2022-11-04T13:54:46.223Z,1007.27
2022-11-04T13:59:53.504Z,1007.23
2022-11-04T14:05:00.666Z,1007.18
2022-11-04T14:10:07.936Z,1007.11
2022-11-04T14:15:15.209Z,1007.09
2022-11-04T14:20:22.461Z,1007.06
2022-11-04T14:25:29.711Z,1007.04
2022-11-04T14:30:36.912Z,1007.02
2022-11-04T14:35:44.339Z,1007.07
2022-11-04T14:40:51.780Z,1007.14
2022-11-04T14:45:58.977Z,1007.20
2022-11-04T14:51:06.206Z,1007.24
2022-11-04T14:56:14.994Z,1007.25
2022-11-04T15:01:20.772Z,1007.28
2022-11-04T15:06:40.259Z,1007.35
2022-11-04T15:11:35.147Z,1007.42
2022-11-04T15:16:42.311Z,1007.38
2022-11-04T15:21:49.492Z,1007.41
2022-11-04T15:26:57.021Z,1007.45
2022-11-04T15:32:05.470Z,1007.50
2022-11-04T15:37:12.541Z,1007.54
2022-11-04T15:42:19.976Z,1007.58
2022-11-04T15:47:27.250Z,1007.63
2022-11-04T15:52:34.489Z,1007.65
2022-11-04T15:57:42.001Z,1007.76
2022-11-04T16:02:49.404Z,1007.84
2022-11-04T16:07:56.930Z,1007.94
2022-11-04T16:13:04.277Z,1008.02
2022-11-04T16:18:11.706Z,1008.08
2022-11-04T16:23:19.041Z,1008.14
2022-11-04T16:28:26.562Z,1008.14
2022-11-04T16:33:33.856Z,1008.19
2022-11-04T16:38:41.346Z,1008.25
2022-11-04T16:43:49.070Z,1008.31
2022-11-04T16:48:57.607Z,1008.37
2022-11-04T16:54:05.215Z,1008.42
2022-11-04T16:59:12.955Z,1008.51
2022-11-04T17:04:20.452Z,1008.59
2022-11-04T17:09:27.854Z,1008.66
2022-11-04T17:14:35.429Z,1008.71
2022-11-04T17:19:42.774Z,1008.82
2022-11-04T17:24:50.181Z,1008.91
2022-11-04T17:29:58.049Z,1008.96
2022-11-04T17:35:05.511Z,1009.03
2022-11-04T17:40:13.124Z,1009.21
2022-11-04T17:45:22.299Z,1009.21
2022-11-04T17:50:29.541Z,1009.29
2022-11-04T17:55:36.950Z,1009.39
2022-11-04T18:00:44.632Z,1009.50
2022-11-04T18:05:51.985Z,1009.59
2022-11-04T18:10:59.203Z,1009.62
2022-11-04T18:16:08.385Z,1009.67
2022-11-04T18:21:15.632Z,1009.75
2022-11-04T18:26:22.894Z,1009.78
2022-11-04T18:31:30.206Z,1009.81
2022-11-04T18:36:37.600Z,1009.90
2022-11-04T18:41:45.426Z,1009.99
2022-11-04T18:46:52.963Z,1010.05
2022-11-04T18:52:00.651Z,1010.05
2022-11-04T18:57:08.270Z,1010.12
2022-11-04T19:02:16.246Z,1010.22
2022-11-04T19:07:23.522Z,1010.30
2022-11-04T19:12:31.212Z,1010.34
2022-11-04T19:17:38.850Z,1010.40
2022-11-04T19:22:46.435Z,1010.44
2022-11-04T19:28:18.601Z,1010.53
2022-11-04T19:33:01.487Z,1010.54
2022-11-04T19:38:10.407Z,1010.60
2022-11-04T19:43:17.818Z,1010.73
2022-11-04T19:48:25.598Z,1010.83
2022-11-04T19:53:33.047Z,1010.95
2022-11-04T19:58:40.661Z,1011.13
2022-11-04T20:03:48.290Z,1011.32
2022-11-04T20:08:55.249Z,1011.45
2022-11-04T20:14:07.792Z,1011.55
2022-11-04T20:19:10.263Z,1011.57
2022-11-04T20:24:17.386Z,1011.67
2022-11-04T20:29:24.913Z,1011.79
2022-11-04T20:34:33.033Z,1011.94
2022-11-04T20:39:39.835Z,1012.08
2022-11-04T20:44:47.057Z,1012.11
2022-11-04T20:49:54.469Z,1012.17
2022-11-04T20:55:03.084Z,1012.28
2022-11-04T21:00:10.605Z,1012.39
2022-11-04T21:05:18.172Z,1012.52
2022-11-04T21:10:25.370Z,1012.57
2022-11-04T21:15:32.931Z,1012.65
2022-11-04T21:20:40.384Z,1012.70
2022-11-04T21:25:47.801Z,1012.76
2022-11-04T21:30:55.259Z,1012.83
2022-11-04T21:36:02.926Z,1012.90
2022-11-04T21:41:10.157Z,1012.93
2022-11-04T21:46:17.339Z,1012.96
2022-11-04T21:51:24.521Z,1013.06
2022-11-04T21:56:31.784Z,1013.11
2022-11-04T22:01:39.210Z,1013.08
2022-11-04T22:06:46.308Z,1013.13
2022-11-04T22:11:53.464Z,1013.16
2022-11-04T22:17:00.720Z,1013.24
2022-11-04T22:22:07.910Z,1013.22
2022-11-04T22:27:15.071Z,1013.25
2022-11-04T22:32:22.333Z,1013.21
2022-11-04T22:37:29.611Z,1013.14
2022-11-04T22:42:36.746Z,1013.15
2022-11-04T22:47:43.955Z,1013.17
2022-11-04T22:52:51.327Z,1013.22
2022-11-04T22:57:58.579Z,1013.32
2022-11-04T23:03:05.957Z,1013.33
2022-11-04T23:08:13.081Z,1013.41
2022-11-04T23:13:20.141Z,1013.47
2022-11-04T23:18:27.374Z,1013.56
2022-11-04T23:23:34.610Z,1013.61
2022-11-04T23:28:41.930Z,1013.60
2022-11-04T23:33:49.126Z,1013.60
2022-11-04T23:38:58.037Z,1013.68
2022-11-04T23:44:05.183Z,1013.67
2022-11-04T23:49:12.432Z,1013.78
2022-11-04T23:54:19.601Z,1013.84
2022-11-04T23:59:26.820Z,1013.90
